Search for airport 
image banner adimage banner adimage banner ad
image banner ad

21CA - Oxy Usa Inc Huntington Beach

Located in Huntington Beach, United States

ICAO - 21CA, IATA -

Data provided by Airmate  

General information

Coordinates: N33°41'2" W118°1'54"
Elevation is 40 feet MSL.
Magnetic variation is 14° East
View others Airports in California

Operational data

Special qualification required
Current time UTC:
Current local time:
Weather at : KSLI - Los Alamitos Aaf ( 12 km )
METAR: KSLI 261023Z AUTO 23004KT 10SM OVC014 18/15 A3000 RMK AO2 SLP162
TAF: TAF AMD KSLI 260600Z 2606/2711 VRB06KT 9999 OVC010 QNH3000INS BECMG 2610/2611 VRB06KT 9999 SCT009 QNH2999INS TEMPO 2611/2616 6000 BR OVC009 BECMG 2618/2619 VRB06KT 9999 FEW100 QNH2997INS TX26/2621Z TN14/2611Z
View NOTAMs / SUP AIP / TFR affecting this airport [VIEW]
Communications frequencies: [VIEW]

Runways:

Airport contact information

Address: Huntington Beach United States

Satellite view of 21CA